| time (UTC) | temp F | wind direction | speed MPH | gust MPH | rain 1hr in | rain 24hr in | rain mn in | humidity % | barometer mb |
| 20260502170505 | 54 | 59 | 0.0 | 1.0 | 0.03 | 0.25 | 0.25 | 91 | 1014.2 |
| 20260502164005 | 55 | 54 | 0.0 | 1.0 | 0.05 | 0.25 | 0.25 | 91 | 1014.3 |
| 20260502163505 | 54 | 66 | 0.0 | 1.0 | 0.06 | 0.25 | 0.25 | 90 | 1014.3 |
| 20260502163005 | 55 | 67 | 0.0 | 1.0 | 0.07 | 0.25 | 0.25 | 90 | 1014.3 |
| 20260502162505 | 55 | 64 | 1.0 | 1.0 | 0.09 | 0.25 | 0.25 | 90 | 1014.2 |
| 20260502162005 | 55 | 49 | 1.0 | 1.0 | 0.11 | 0.25 | 0.25 | 90 | 1014.2 |
| 20260502161505 | 55 | 311 | 0.0 | 2.0 | 0.12 | 0.24 | 0.24 | 89 | 1014.3 |
| 20260502161005 | 55 | 320 | 1.0 | 2.0 | 0.13 | 0.23 | 0.23 | 89 | 1014.3 |
| 20260502160505 | 55 | 335 | 1.0 | 2.0 | 0.14 | 0.22 | 0.22 | 89 | 1014.3 |
| 20260502152005 | 56 | 141 | 0.0 | 1.0 | 0.14 | 0.15 | 0.14 | 86 | 1015.5 |
| 20260502151505 | 56 | 141 | 0.0 | 1.0 | 0.12 | 0.13 | 0.12 | 85 | 1015.5 |
| 20260502151005 | 57 | 137 | 0.0 | 1.0 | 0.10 | 0.11 | 0.10 | 85 | 1015.7 |
| 20260502150505 | 57 | 135 | 0.0 | 1.0 | 0.08 | 0.09 | 0.08 | 84 | 1015.5 |
| 20260502130505 | 64 | 119 | 3.0 | 3.0 | 0.00 | 0.01 | 0.00 | 56 | 1016.5 |
| 20260502123505 | 64 | 140 | 2.0 | 4.0 | 0.00 | 0.01 | 0.00 | 56 | 1016.7 |
| 20260502123005 | 64 | 112 | 2.0 | 6.0 | 0.00 | 0.01 | 0.00 | 56 | 1016.9 |
| 20260502122505 | 63 | 119 | 2.0 | 6.0 | 0.00 | 0.01 | 0.00 | 56 | 1017.1 |
| 20260502122005 | 64 | 124 | 3.0 | 4.0 | 0.00 | 0.01 | 0.00 | 56 | 1017.0 |
| 20260502121505 | 64 | 127 | 2.0 | 4.0 | 0.00 | 0.01 | 0.00 | 55 | 1017.1 |
| 20260502121005 | 64 | 142 | 1.0 | 4.0 | 0.00 | 0.01 | 0.00 | 57 | 1017.1 |
| 20260502120505 | 64 | 88 | 4.0 | 4.0 | 0.00 | 0.01 | 0.00 | 55 | 1017.4 |
| 20260502115505 | 64 | 111 | 3.0 | 4.0 | 0.00 | 0.01 | 0.00 | 55 | 1017.4 |
| 20260502115005 | 64 | 141 | 2.0 | 3.0 | 0.00 | 0.01 | 0.00 | 56 | 1017.6 |
| 20260502114505 | 64 | 138 | 2.0 | 3.0 | 0.00 | 0.01 | 0.00 | 56 | 1017.6 |
| 20260502114005 | 65 | 100 | 3.0 | 2.0 | 0.00 | 0.01 | 0.00 | 55 | 1017.3 |
| 20260502113505 | 65 | 100 | 3.0 | 2.0 | 0.00 | 0.01 | 0.00 | 55 | 1017.6 |
| 20260502113005 | 65 | 97 | 2.0 | 3.0 | 0.00 | 0.01 | 0.00 | 55 | 1017.4 |
| 20260502112505 | 65 | 88 | 1.0 | 3.0 | 0.00 | 0.01 | 0.00 | 55 | 1017.5 |
| 20260502112005 | 65 | 9 | 1.0 | 2.0 | 0.00 | 0.01 | 0.00 | 54 | 1017.7 |
| 20260502111505 | 64 | 114 | 1.0 | 6.0 | 0.00 | 0.01 | 0.00 | 56 | 1017.7 |
| 20260502111005 | 63 | 120 | 2.0 | 6.0 | 0.00 | 0.01 | 0.00 | 57 | 1017.8 |
| 20260502110505 | 63 | 107 | 3.0 | 8.0 | 0.00 | 0.01 | 0.00 | 59 | 1018.0 |
| 20260502110005 | 62 | 104 | 3.0 | 8.0 | 0.00 | 0.01 | 0.00 | 61 | 1017.9 |
| 20260502105505 | 62 | 122 | 3.0 | 7.0 | 0.00 | 0.01 | 0.00 | 59 | 1018.3 |
| 20260502105005 | 63 | 112 | 3.0 | 7.0 | 0.00 | 0.01 | 0.00 | 59 | 1018.3 |
| 20260502104505 | 63 | 92 | 1.0 | 7.0 | 0.00 | 0.01 | 0.00 | 58 | 1018.2 |
| 20260502104005 | 62 | 100 | 2.0 | 6.0 | 0.00 | 0.01 | 0.00 | 60 | 1018.5 |
| 20260502103505 | 62 | 103 | 3.0 | 6.0 | 0.00 | 0.01 | 0.00 | 62 | 1018.6 |
| 20260502103005 | 62 | 114 | 3.0 | 6.0 | 0.00 | 0.01 | 0.00 | 62 | 1018.7 |
| 20260502102505 | 62 | 138 | 2.0 | 6.0 | 0.00 | 0.01 | 0.00 | 61 | 1018.8 |
| 20260502102005 | 62 | 121 | 3.0 | 7.0 | 0.00 | 0.01 | 0.00 | 61 | 1018.6 |
| 20260502101505 | 61 | 101 | 3.0 | 7.0 | 0.00 | 0.01 | 0.00 | 63 | 1018.9 |
| 20260502101005 | 61 | 104 | 3.0 | 7.0 | 0.00 | 0.01 | 0.00 | 62 | 1019.1 |
| 20260502100505 | 61 | 120 | 3.0 | 8.0 | 0.00 | 0.01 | 0.00 | 62 | 1019.1 |
| 20260502091505 | 59 | 108 | 2.0 | 4.0 | 0.00 | 0.01 | 0.00 | 67 | 1019.1 |
| 20260502091005 | 58 | 104 | 2.0 | 6.0 | 0.00 | 0.01 | 0.00 | 68 | 1019.3 |
| 20260502090505 | 59 | 108 | 3.0 | 7.0 | 0.00 | 0.01 | 0.00 | 68 | 1019.3 |
| 20260502071504 | 51 | 125 | 0.0 | 1.0 | 0.00 | 0.01 | 0.00 | 93 | 1020.3 |
| 20260502071005 | 50 | 117 | 1.0 | 2.0 | 0.00 | 0.01 | 0.00 | 94 | 1020.1 |
| 20260502070504 | 50 | 110 | 1.0 | 2.0 | 0.00 | 0.01 | 0.00 | 93 | 1020.2 |
| 20260502070005 | 49 | 101 | 0.0 | 1.0 | 0.00 | 0.01 | 0.00 | 93 | 1020.1 |
| 20260502065504 | 49 | 0 | 0.0 | 0.0 | 0.00 | 0.01 | 0.00 | 93 | 1020.2 |
| 20260502065004 | 49 | 0 | 0.0 | 0.0 | 0.00 | 0.01 | 0.00 | 93 | 1020.0 |
| 20260502064505 | 49 | 0 | 0.0 | 0.0 | 0.00 | 0.01 | 0.00 | 93 | 1020.2 |
| 20260502064005 | 49 | 0 | 0.0 | 0.0 | 0.00 | 0.01 | 0.00 | 93 | 1020.2 |
| 20260502063504 | 49 | 102 | 0.0 | 1.0 | 0.00 | 0.01 | 0.00 | 93 | 1020.3 |
| 20260502063004 | 49 | 102 | 0.0 | 1.0 | 0.00 | 0.01 | 0.00 | 93 | 1020.2 |
| 20260502062504 | 49 | 102 | 0.0 | 1.0 | 0.00 | 0.01 | 0.00 | 93 | 1020.2 |
| 20260502062004 | 49 | 102 | 0.0 | 1.0 | 0.00 | 0.01 | 0.00 | 93 | 1020.2 |
| 20260502061505 | 48 | 101 | 0.0 | 1.0 | 0.00 | 0.01 | 0.00 | 93 | 1020.1 |
| 20260502061004 | 48 | 0 | 0.0 | 0.0 | 0.00 | 0.01 | 0.00 | 93 | 1020.3 |
| 20260502060504 | 48 | 0 | 0.0 | 0.0 | 0.00 | 0.01 | 0.00 | 92 | 1020.5 |
| 20260502060005 | 48 | 0 | 0.0 | 0.0 | 0.00 | 0.01 | 0.00 | 92 | 1020.2 |
| 20260502055504 | 48 | 0 | 0.0 | 0.0 | 0.00 | 0.01 | 0.00 | 92 | 1020.1 |
| 20260502055004 | 47 | 0 | 0.0 | 0.0 | 0.00 | 0.01 | 0.00 | 92 | 1020.4 |
| 20260502054504 | 47 | 0 | 0.0 | 0.0 | 0.00 | 0.01 | 0.00 | 92 | 1020.4 |
| 20260502054004 | 47 | 0 | 0.0 | 0.0 | 0.00 | 0.01 | 0.00 | 92 | 1020.5 |
| 20260502053504 | 46 | 0 | 0.0 | 0.0 | 0.00 | 0.01 | 0.00 | 92 | 1020.2 |
| 20260502053004 | 46 | 0 | 0.0 | 0.0 | 0.00 | 0.01 | 0.00 | 92 | 1020.4 |
| 20260502052505 | 46 | 0 | 0.0 | 0.0 | 0.00 | 0.01 | 0.00 | 92 | 1020.3 |
| 20260502052004 | 45 | 0 | 0.0 | 0.0 | 0.00 | 0.01 | 0.00 | 92 | 1020.2 |
| 20260502051504 | 45 | 0 | 0.0 | 0.0 | 0.00 | 0.01 | 0.00 | 92 | 1020.3 |
| 20260502051005 | 45 | 0 | 0.0 | 0.0 | 0.00 | 0.01 | 0.00 | 92 | 1020.2 |
| 20260502050504 | 45 | 0 | 0.0 | 0.0 | 0.00 | 0.01 | 0.00 | 92 | 1020.3 |
| 20260502050005 | 44 | 0 | 0.0 | 0.0 | 0.00 | 0.01 | 0.00 | 92 | 1020.1 |
| 20260502045504 | 44 | 0 | 0.0 | 0.0 | 0.00 | 0.01 | 0.00 | 92 | 1020.1 |
| 20260502045005 | 44 | 0 | 0.0 | 0.0 | 0.00 | 0.01 | 0.00 | 92 | 1020.2 |
| 20260502044505 | 44 | 0 | 0.0 | 0.0 | 0.00 | 0.01 | 0.00 | 92 | 1020.2 |
| 20260502044004 | 44 | 0 | 0.0 | 0.0 | 0.00 | 0.01 | 0.00 | 92 | 1020.4 |
| 20260502043504 | 44 | 101 | 0.0 | 1.0 | 0.00 | 0.01 | 0.00 | 92 | 1020.2 |
| 20260502043004 | 44 | 101 | 0.0 | 1.0 | 0.00 | 0.01 | 0.00 | 92 | 1020.1 |
| 20260502042504 | 43 | 101 | 0.0 | 1.0 | 0.00 | 0.01 | 0.00 | 92 | 1020.2 |
| 20260502042004 | 43 | 101 | 0.0 | 1.0 | 0.00 | 0.01 | 0.00 | 92 | 1020.4 |
| 20260502041504 | 43 | 101 | 0.0 | 1.0 | 0.00 | 0.01 | 0.00 | 92 | 1020.4 |
| 20260502041004 | 43 | 0 | 0.0 | 0.0 | 0.00 | 0.01 | 0.00 | 92 | 1020.1 |
| 20260502040504 | 43 | 0 | 0.0 | 0.0 | 0.00 | 0.01 | 0.00 | 92 | 1020.1 |
| 20260502040004 | 43 | 0 | 0.0 | 0.0 | 0.00 | 0.01 | 0.00 | 92 | 1020.3 |
| 20260502035504 | 43 | 0 | 0.0 | 0.0 | 0.00 | 0.01 | 0.00 | 92 | 1020.5 |
| 20260502035004 | 43 | 0 | 0.0 | 0.0 | 0.00 | 0.01 | 0.00 | 91 | 1020.6 |
| 20260502034504 | 43 | 0 | 0.0 | 0.0 | 0.00 | 0.01 | 0.00 | 91 | 1020.4 |
| 20260502034004 | 43 | 0 | 0.0 | 0.0 | 0.00 | 0.01 | 0.00 | 91 | 1020.7 |
| 20260502033504 | 43 | 0 | 0.0 | 0.0 | 0.00 | 0.01 | 0.00 | 91 | 1020.7 |
| 20260502033004 | 43 | 0 | 0.0 | 0.0 | 0.00 | 0.01 | 0.00 | 91 | 1020.8 |
| 20260502032504 | 43 | 0 | 0.0 | 0.0 | 0.00 | 0.01 | 0.00 | 91 | 1020.6 |
| 20260502032004 | 43 | 0 | 0.0 | 0.0 | 0.00 | 0.01 | 0.00 | 91 | 1020.7 |
| 20260502031504 | 43 | 0 | 0.0 | 0.0 | 0.00 | 0.01 | 0.00 | 91 | 1020.7 |
| 20260502031004 | 44 | 0 | 0.0 | 0.0 | 0.00 | 0.01 | 0.00 | 91 | 1020.9 |
| 20260502030504 | 44 | 0 | 0.0 | 0.0 | 0.00 | 0.01 | 0.00 | 91 | 1020.8 |
| 20260502030004 | 44 | 0 | 0.0 | 0.0 | 0.00 | 0.01 | 0.00 | 91 | 1020.8 |
| 20260502025504 | 44 | 0 | 0.0 | 0.0 | 0.00 | 0.01 | 0.00 | 91 | 1020.8 |
| 20260502025004 | 43 | 0 | 0.0 | 0.0 | 0.00 | 0.01 | 0.00 | 91 | 1020.8 |
| 20260502024504 | 43 | 0 | 0.0 | 0.0 | 0.00 | 0.01 | 0.00 | 91 | 1020.8 |
| 20260502024004 | 43 | 0 | 0.0 | 0.0 | 0.00 | 0.01 | 0.00 | 91 | 1020.8 |
| 20260502023504 | 43 | 0 | 0.0 | 0.0 | 0.00 | 0.01 | 0.00 | 90 | 1020.9 |
| 20260502023004 | 43 | 0 | 0.0 | 0.0 | 0.00 | 0.01 | 0.00 | 90 | 1020.9 |
| 20260502022504 | 44 | 0 | 0.0 | 0.0 | 0.00 | 0.01 | 0.00 | 90 | 1021.0 |
| 20260502022004 | 43 | 0 | 0.0 | 0.0 | 0.00 | 0.01 | 0.00 | 90 | 1021.0 |
| 20260502021504 | 44 | 0 | 0.0 | 0.0 | 0.00 | 0.01 | 0.00 | 90 | 1020.9 |
| 20260502021004 | 44 | 0 | 0.0 | 0.0 | 0.00 | 0.01 | 0.00 | 90 | 1020.9 |
| 20260502020504 | 44 | 0 | 0.0 | 0.0 | 0.00 | 0.01 | 0.00 | 90 | 1021.1 |
| 20260502020004 | 44 | 0 | 0.0 | 0.0 | 0.00 | 0.01 | 0.00 | 90 | 1021.1 |
| 20260502015504 | 44 | 0 | 0.0 | 0.0 | 0.00 | 0.01 | 0.00 | 90 | 1021.3 |
| 20260502015004 | 44 | 0 | 0.0 | 0.0 | 0.00 | 0.01 | 0.00 | 90 | 1021.2 |
| 20260502014504 | 44 | 0 | 0.0 | 0.0 | 0.00 | 0.01 | 0.00 | 89 | 1021.2 |
| 20260502014004 | 44 | 0 | 0.0 | 0.0 | 0.00 | 0.01 | 0.00 | 89 | 1021.1 |
| 20260502013504 | 44 | 0 | 0.0 | 0.0 | 0.00 | 0.01 | 0.00 | 89 | 1021.3 |
| 20260502013004 | 44 | 0 | 0.0 | 0.0 | 0.00 | 0.01 | 0.00 | 89 | 1021.2 |
| 20260502012504 | 45 | 0 | 0.0 | 0.0 | 0.00 | 0.01 | 0.00 | 88 | 1021.4 |
| 20260502012004 | 45 | 0 | 0.0 | 0.0 | 0.00 | 0.01 | 0.00 | 88 | 1021.3 |
| 20260502011504 | 45 | 0 | 0.0 | 0.0 | 0.00 | 0.01 | 0.00 | 88 | 1021.3 |
| 20260502011004 | 45 | 0 | 0.0 | 0.0 | 0.00 | 0.01 | 0.00 | 88 | 1021.3 |
| 20260502010504 | 45 | 0 | 0.0 | 0.0 | 0.00 | 0.01 | 0.00 | 87 | 1021.2 |
| 20260502010004 | 46 | 0 | 0.0 | 0.0 | 0.00 | 0.01 | 0.00 | 87 | 1021.4 |
| 20260502005504 | 46 | 101 | 0.0 | 2.0 | 0.00 | 0.01 | 0.00 | 87 | 1021.6 |
| 20260502005004 | 46 | 101 | 0.0 | 2.0 | 0.00 | 0.01 | 0.00 | 86 | 1021.3 |
| 20260502004504 | 46 | 0 | 0.0 | 0.0 | 0.00 | 0.01 | 0.00 | 86 | 1021.2 |
| 20260502004004 | 47 | 273 | 0.0 | 1.0 | 0.00 | 0.01 | 0.00 | 86 | 1021.8 |
| 20260502003504 | 47 | 273 | 0.0 | 1.0 | 0.00 | 0.01 | 0.00 | 86 | 1021.5 |
| 20260502003004 | 47 | 0 | 0.0 | 0.0 | 0.00 | 0.01 | 0.00 | 85 | 1021.6 |
| 20260502002504 | 47 | 0 | 0.0 | 0.0 | 0.00 | 0.01 | 0.00 | 85 | 1021.7 |
| 20260502002004 | 48 | 0 | 0.0 | 0.0 | 0.00 | 0.01 | 0.00 | 84 | 1021.5 |
| 20260502001504 | 48 | 0 | 0.0 | 0.0 | 0.00 | 0.01 | 0.00 | 84 | 1021.7 |
| 20260502001004 | 49 | 0 | 0.0 | 0.0 | 0.00 | 0.01 | 0.00 | 83 | 1021.7 |
| 20260502000504 | 49 | 0 | 0.0 | 0.0 | 0.00 | 0.01 | 0.00 | 82 | 1021.6 |
| 20260502000004 | 49 | 286 | 0.0 | 1.0 | 0.00 | 0.01 | 0.00 | 82 | 1021.5 |
| 20260501235504 | 50 | 286 | 0.0 | 1.0 | 0.00 | 0.01 | 0.00 | 82 | 1021.6 |
| 20260501235004 | 50 | 286 | 0.0 | 2.0 | 0.00 | 0.01 | 0.00 | 81 | 1021.6 |
| 20260501234504 | 50 | 286 | 0.0 | 2.0 | 0.00 | 0.01 | 0.00 | 81 | 1021.6 |
| 20260501234004 | 50 | 281 | 0.0 | 2.0 | 0.00 | 0.01 | 0.00 | 81 | 1021.8 |
| 20260501233504 | 50 | 277 | 0.0 | 2.0 | 0.00 | 0.01 | 0.00 | 82 | 1021.9 |
| 20260501233004 | 50 | 276 | 0.0 | 1.0 | 0.00 | 0.01 | 0.00 | 82 | 1021.9 |
| 20260501232504 | 50 | 278 | 0.0 | 1.0 | 0.00 | 0.01 | 0.00 | 82 | 1022.0 |
| 20260501232004 | 50 | 278 | 0.0 | 1.0 | 0.00 | 0.01 | 0.00 | 82 | 1022.1 |
| 20260501231504 | 50 | 0 | 0.0 | 0.0 | 0.00 | 0.01 | 0.00 | 82 | 1022.1 |
| 20260501231004 | 49 | 325 | 1.0 | 1.0 | 0.00 | 0.01 | 0.00 | 83 | 1022.1 |
| 20260501230504 | 49 | 325 | 1.0 | 1.0 | 0.00 | 0.01 | 0.00 | 83 | 1022.2 |
| 20260501230004 | 49 | 325 | 1.0 | 1.0 | 0.00 | 0.01 | 0.00 | 83 | 1022.2 |
| 20260501225504 | 49 | 325 | 1.0 | 1.0 | 0.00 | 0.01 | 0.01 | 83 | 1022.0 |
| 20260501225004 | 49 | 325 | 1.0 | 1.0 | 0.00 | 0.01 | 0.01 | 83 | 1022.2 |
| 20260501224505 | 49 | 325 | 0.0 | 1.0 | 0.00 | 0.01 | 0.01 | 83 | 1022.1 |
| 20260501224004 | 49 | 5 | 0.0 | 1.0 | 0.00 | 0.01 | 0.01 | 83 | 1022.3 |
| 20260501223504 | 49 | 44 | 0.0 | 1.0 | 0.00 | 0.01 | 0.01 | 83 | 1022.2 |
| 20260501223004 | 49 | 27 | 0.0 | 1.0 | 0.00 | 0.01 | 0.01 | 83 | 1022.3 |
| 20260501222504 | 49 | 294 | 0.0 | 1.0 | 0.00 | 0.01 | 0.01 | 83 | 1022.2 |
| 20260501222004 | 49 | 285 | 0.0 | 1.0 | 0.00 | 0.01 | 0.01 | 82 | 1022.1 |
| 20260501221504 | 50 | 285 | 0.0 | 1.0 | 0.00 | 0.01 | 0.01 | 81 | 1022.2 |
| 20260501221004 | 49 | 285 | 0.0 | 1.0 | 0.00 | 0.01 | 0.01 | 82 | 1022.1 |
| 20260501220504 | 49 | 287 | 0.0 | 1.0 | 0.00 | 0.01 | 0.01 | 82 | 1022.3 |
| 20260501220004 | 50 | 276 | 0.0 | 1.0 | 0.00 | 0.01 | 0.01 | 81 | 1022.2 |
| 20260501215504 | 50 | 273 | 0.0 | 1.0 | 0.00 | 0.01 | 0.01 | 81 | 1022.3 |
| 20260501215004 | 51 | 272 | 0.0 | 1.0 | 0.00 | 0.01 | 0.01 | 80 | 1022.1 |
| 20260501214504 | 51 | 271 | 0.0 | 1.0 | 0.00 | 0.01 | 0.01 | 79 | 1022.1 |
| 20260501214004 | 51 | 273 | 0.0 | 1.0 | 0.00 | 0.01 | 0.01 | 79 | 1022.2 |
| 20260501213504 | 51 | 273 | 0.0 | 3.0 | 0.00 | 0.01 | 0.01 | 79 | 1022.1 |
| 20260501213004 | 52 | 273 | 0.0 | 3.0 | 0.00 | 0.01 | 0.01 | 79 | 1022.0 |
| 20260501212504 | 52 | 277 | 0.0 | 1.0 | 0.00 | 0.01 | 0.01 | 79 | 1021.9 |
| 20260501212004 | 52 | 283 | 1.0 | 2.0 | 0.00 | 0.01 | 0.01 | 79 | 1021.6 |
| 20260501211504 | 51 | 281 | 0.0 | 2.0 | 0.00 | 0.01 | 0.01 | 80 | 1022.0 |
| 20260501211004 | 51 | 263 | 0.0 | 1.0 | 0.00 | 0.01 | 0.01 | 81 | 1022.1 |
| 20260501210504 | 51 | 263 | 0.0 | 1.0 | 0.00 | 0.01 | 0.01 | 82 | 1022.1 |
| 20260501210004 | 51 | 267 | 0.0 | 1.0 | 0.00 | 0.01 | 0.01 | 82 | 1021.9 |
| 20260501205504 | 51 | 267 | 0.0 | 1.0 | 0.00 | 0.01 | 0.01 | 82 | 1022.0 |
| 20260501205004 | 51 | 0 | 0.0 | 0.0 | 0.00 | 0.01 | 0.01 | 81 | 1022.1 |
| 20260501204504 | 52 | 0 | 0.0 | 0.0 | 0.00 | 0.01 | 0.01 | 81 | 1021.8 |
| 20260501204004 | 52 | 0 | 0.0 | 0.0 | 0.00 | 0.01 | 0.01 | 81 | 1022.0 |
| 20260501203504 | 52 | 0 | 0.0 | 0.0 | 0.00 | 0.01 | 0.01 | 81 | 1021.9 |
| 20260501203004 | 52 | 0 | 0.0 | 0.0 | 0.00 | 0.01 | 0.01 | 81 | 1022.0 |
| 20260501202504 | 52 | 274 | 0.0 | 1.0 | 0.00 | 0.01 | 0.01 | 80 | 1022.0 |
| 20260501202004 | 53 | 275 | 0.0 | 1.0 | 0.00 | 0.01 | 0.01 | 81 | 1022.1 |
| 20260501201504 | 53 | 277 | 0.0 | 1.0 | 0.00 | 0.01 | 0.01 | 80 | 1022.1 |
| 20260501201004 | 53 | 0 | 0.0 | 0.0 | 0.00 | 0.01 | 0.01 | 79 | 1022.0 |
| 20260501200504 | 54 | 278 | 0.0 | 1.0 | 0.00 | 0.01 | 0.01 | 79 | 1021.9 |
| 20260501200004 | 54 | 278 | 0.0 | 1.0 | 0.00 | 0.01 | 0.01 | 78 | 1022.1 |
| 20260501195504 | 54 | 282 | 0.0 | 2.0 | 0.00 | 0.01 | 0.01 | 78 | 1021.7 |
| 20260501195004 | 55 | 280 | 1.0 | 2.0 | 0.00 | 0.01 | 0.01 | 78 | 1021.7 |
| 20260501194504 | 55 | 275 | 1.0 | 2.0 | 0.00 | 0.01 | 0.01 | 78 | 1021.8 |
| 20260501194004 | 55 | 278 | 1.0 | 2.0 | 0.00 | 0.01 | 0.01 | 79 | 1021.8 |
| 20260501193504 | 56 | 281 | 1.0 | 2.0 | 0.00 | 0.01 | 0.01 | 80 | 1021.8 |
| 20260501193004 | 56 | 280 | 1.0 | 2.0 | 0.00 | 0.01 | 0.01 | 80 | 1021.7 |
| 20260501192504 | 56 | 282 | 1.0 | 2.0 | 0.00 | 0.01 | 0.01 | 80 | 1021.7 |
| 20260501192004 | 57 | 283 | 1.0 | 2.0 | 0.00 | 0.01 | 0.01 | 80 | 1021.8 |
| 20260501191504 | 57 | 277 | 1.0 | 2.0 | 0.00 | 0.01 | 0.01 | 80 | 1021.6 |
| 20260501191004 | 58 | 293 | 1.0 | 3.0 | 0.00 | 0.01 | 0.01 | 79 | 1021.6 |
| 20260501190504 | 58 | 295 | 1.0 | 3.0 | 0.00 | 0.01 | 0.01 | 79 | 1021.8 |
| 20260501190004 | 58 | 292 | 1.0 | 3.0 | 0.00 | 0.01 | 0.01 | 78 | 1021.9 |
| 20260501185504 | 58 | 290 | 1.0 | 1.0 | 0.00 | 0.01 | 0.01 | 79 | 1021.7 |
| 20260501185004 | 58 | 283 | 1.0 | 2.0 | 0.00 | 0.01 | 0.01 | 79 | 1021.6 |
| 20260501184504 | 58 | 288 | 1.0 | 3.0 | 0.00 | 0.01 | 0.01 | 79 | 1021.6 |
| 20260501184004 | 58 | 299 | 1.0 | 3.0 | 0.00 | 0.01 | 0.01 | 78 | 1021.9 |
| 20260501183504 | 58 | 298 | 1.0 | 3.0 | 0.00 | 0.01 | 0.01 | 78 | 1021.7 |
| 20260501183004 | 59 | 297 | 1.0 | 3.0 | 0.00 | 0.01 | 0.01 | 77 | 1021.6 |
| 20260501182504 | 60 | 295 | 0.0 | 2.0 | 0.00 | 0.01 | 0.01 | 75 | 1021.5 |
| 20260501182004 | 60 | 295 | 1.0 | 2.0 | 0.00 | 0.01 | 0.01 | 75 | 1021.6 |
| 20260501181504 | 60 | 294 | 1.0 | 3.0 | 0.00 | 0.01 | 0.01 | 75 | 1021.6 |
| 20260501181004 | 60 | 287 | 1.0 | 3.0 | 0.00 | 0.01 | 0.01 | 75 | 1021.5 |
| 20260501180504 | 60 | 282 | 1.0 | 3.0 | 0.00 | 0.01 | 0.01 | 75 | 1021.7 |
| 20260501180004 | 60 | 290 | 1.0 | 3.0 | 0.00 | 0.01 | 0.01 | 74 | 1021.4 |
| 20260501175504 | 60 | 297 | 1.0 | 2.0 | 0.00 | 0.01 | 0.01 | 75 | 1021.5 |
| 20260501175004 | 60 | 275 | 1.0 | 2.0 | 0.00 | 0.01 | 0.01 | 75 | 1021.3 |
| 20260501174504 | 60 | 267 | 1.0 | 2.0 | 0.00 | 0.01 | 0.01 | 75 | 1021.5 |
| 20260501174004 | 60 | 282 | 1.0 | 2.0 | 0.00 | 0.01 | 0.01 | 75 | 1021.5 |
| 20260501173504 | 60 | 291 | 1.0 | 2.0 | 0.00 | 0.01 | 0.01 | 74 | 1021.5 |
| 20260501173004 | 61 | 289 | 1.0 | 2.0 | 0.00 | 0.01 | 0.01 | 74 | 1021.5 |
| 20260501172504 | 61 | 294 | 2.0 | 4.0 | 0.00 | 0.01 | 0.01 | 74 | 1021.6 |